Time;durP1;ratioP1;P1;durP2;ratioP2;P2;SDS_P1;SDS_P2;PMS_P1;PMS_P2;Temp;Humidity;BMP_temperature;BMP_pressure;BME280_temperature;BME280_humidity;BME280_pressure;Samples;Min_cycle;Max_cycle;Signal;HPM_P1;HPM_P2
2022/10/07 00:01:57;;;;;;;;;;;;;;;13.53;57.49;102438.48;1737990;82;25777;-60
2022/10/07 00:04:24;;;;;;;;;;;;;;;13.55;57.27;102439.24;1730017;82;27461;-60
2022/10/07 00:06:51;;;;;;;;;;;;;;;13.57;57.39;102442.20;1726721;82;25779;-58
2022/10/07 00:09:18;;;;;;;;;;;;;;;13.58;57.29;102449.34;1726743;82;25696;-59
2022/10/07 00:11:44;;;;;;;;;;;;;;;13.57;57.35;102440.00;1726664;83;26162;-58
2022/10/07 00:14:11;;;;;;;;;;;;;;;13.58;57.46;102439.87;1726751;83;25810;-61
2022/10/07 00:16:40;;;;;;;;;;;;;;;13.60;57.28;102443.80;1726480;83;27443;-59
2022/10/07 00:19:10;;;;;;;;;;;;;;;13.60;57.21;102437.05;1726687;82;25701;-59
2022/10/07 00:21:37;;;;;;;;;;;;;;;13.61;57.40;102437.42;1726498;82;25669;-58
2022/10/07 00:24:05;;;;;;;;;;;;;;;13.59;57.52;102429.91;1726847;82;27068;-58
2022/10/07 00:26:34;;;;;;;;;;;;;;;13.59;57.60;102421.80;1726954;83;25480;-58
2022/10/07 00:29:01;;;;;;;;;;;;;;;13.63;58.12;102426.52;1726768;83;27508;-59
2022/10/07 00:31:30;;;;;;;;;;;;;;;13.63;58.05;102419.25;1762516;81;25684;-59
2022/10/07 00:33:58;;;;;;;;;;;;;;;13.64;57.94;102420.98;1766048;80;25743;-58
2022/10/07 00:36:28;;;;;;;;;;;;;;;13.64;57.84;102422.80;1766068;81;26063;-59
2022/10/07 00:39:00;;;;;;;;;;;;;;;13.64;57.98;102414.69;1756543;80;26529;-59
2022/10/07 00:41:31;;;;;;;;;;;;;;;13.61;57.98;102417.14;1745413;82;29637;-59
2022/10/07 00:43:59;;;;;;;;;;;;;;;13.58;58.44;102421.45;1745620;82;25771;-59
2022/10/07 00:46:37;;;;;;;;;;;;;;;13.55;58.61;102421.67;1732772;82;25713;-58
2022/10/07 00:49:06;;;;;;;;;;;;;;;13.54;59.60;102427.55;1730553;82;26323;-59
2022/10/07 00:51:33;;;;;;;;;;;;;;;13.51;60.48;102422.39;1726762;82;25752;-59
2022/10/07 00:54:04;;;;;;;;;;;;;;;13.48;59.69;102420.41;1726667;83;29542;-60
2022/10/07 00:56:31;;;;;;;;;;;;;;;13.44;59.41;102413.87;1726798;83;25752;-60
2022/10/07 00:58:58;;;;;;;;;;;;;;;13.41;59.84;102419.49;1726866;83;25771;-60
2022/10/07 01:01:26;;;;;;;;;;;;;;;13.34;59.88;102422.25;1726834;83;26017;-60
2022/10/07 01:03:53;;;;;;;;;;;;;;;13.28;59.82;102426.77;1727085;83;25684;-60
2022/10/07 01:06:21;;;;;;;;;;;;;;;13.30;59.49;102424.83;1726784;83;28317;-60
2022/10/07 01:08:51;;;;;;;;;;;;;;;13.34;59.35;102420.05;1726615;83;25732;-60
2022/10/07 01:11:45;;;;;;;;;;;;;;;13.36;59.47;102423.01;1726705;82;25712;-60
2022/10/07 01:14:21;;;;;;;;;;;;;;;13.40;59.51;102420.97;1696759;83;26184;-60
2022/10/07 01:16:57;;;;;;;;;;;;;;;13.44;59.55;102425.19;1726947;83;25680;-60
2022/10/07 01:20:02;;;;;;;;;;;;;;;13.48;59.37;102423.11;1737749;82;27476;-60
2022/10/07 01:22:38;;;;;;;;;;;;;;;13.45;59.62;102422.36;1737752;82;25702;-59
2022/10/07 01:25:28;;;;;;;;;;;;;;;13.45;59.63;102421.00;1738448;82;25730;-59
2022/10/07 01:27:58;;;;;;;;;;;;;;;13.46;59.58;102424.09;1702281;83;26306;-59
2022/10/07 01:30:25;;;;;;;;;;;;;;;13.45;59.32;102426.41;1700379;83;26165;-59
2022/10/07 01:32:56;;;;;;;;;;;;;;;13.46;59.31;102432.20;1717764;83;27510;-59
2022/10/07 01:35:25;;;;;;;;;;;;;;;13.42;59.94;102427.13;1720315;82;25508;-59
2022/10/07 01:37:55;;;;;;;;;;;;;;;13.34;59.66;102431.71;1710756;83;25706;-60
2022/10/07 01:40:26;;;;;;;;;;;;;;;13.33;59.74;102429.14;1706877;82;26478;-60
2022/10/07 01:42:53;;;;;;;;;;;;;;;13.34;59.61;102431.71;1698945;83;25502;-59
2022/10/07 01:45:22;;;;;;;;;;;;;;;13.37;59.45;102429.27;1689363;85;27565;-60
2022/10/07 01:47:49;;;;;;;;;;;;;;;13.40;59.37;102429.93;1688862;84;25747;-60
2022/10/07 01:50:18;;;;;;;;;;;;;;;13.44;59.34;102428.73;1693771;83;25739;-59
2022/10/07 01:52:51;;;;;;;;;;;;;;;13.48;59.34;102425.31;1713082;83;26067;-59
2022/10/07 01:55:49;;;;;;;;;;;;;;;13.49;59.68;102423.49;1711987;83;26368;-59
2022/10/07 01:58:53;;;;;;;;;;;;;;;13.50;59.69;102427.89;1710236;82;28295;-59
2022/10/07 02:01:26;;;;;;;;;;;;;;;13.53;59.50;102416.86;1705550;82;25751;-59
2022/10/07 02:04:13;;;;;;;;;;;;;;;13.57;59.62;102425.12;1706753;84;25763;-59
2022/10/07 02:06:50;;;;;;;;;;;;;;;13.60;60.00;102424.88;1706762;83;25645;-59
2022/10/07 02:09:38;;;;;;;;;;;;;;;13.62;59.69;102424.28;1706766;82;25736;-60
2022/10/07 02:12:14;;;;;;;;;;;;;;;13.65;59.81;102422.70;1705800;84;27535;-59
2022/10/07 02:14:45;;;;;;;;;;;;;;;13.67;59.80;102428.84;1704946;83;25884;-59
2022/10/07 02:17:17;;;;;;;;;;;;;;;13.71;60.00;102428.14;1705706;82;25733;-59
2022/10/07 02:19:52;;;;;;;;;;;;;;;13.68;59.83;102420.25;1705568;83;26764;-60
2022/10/07 02:22:21;;;;;;;;;;;;;;;13.67;60.45;102427.98;1725980;82;25708;-59
2022/10/07 02:24:50;;;;;;;;;;;;;;;13.66;60.48;102427.14;1731295;83;27691;-59
2022/10/07 02:27:19;;;;;;;;;;;;;;;13.68;60.31;102427.86;1735525;82;25500;-59
2022/10/07 02:29:50;;;;;;;;;;;;;;;13.73;60.47;102430.22;1726417;82;25729;-59
2022/10/07 02:32:20;;;;;;;;;;;;;;;13.76;60.33;102433.55;1712921;83;26055;-59
2022/10/07 02:34:50;;;;;;;;;;;;;;;13.80;60.08;102434.68;1710809;83;25829;-59
2022/10/07 02:37:25;;;;;;;;;;;;;;;13.83;60.43;102433.95;1712115;83;27599;-59
2022/10/07 02:39:53;;;;;;;;;;;;;;;13.85;60.38;102441.98;1708422;83;25928;-59
2022/10/07 02:42:28;;;;;;;;;;;;;;;13.86;60.24;102436.44;1710023;83;25753;-60
2022/10/07 02:45:16;;;;;;;;;;;;;;;13.87;60.30;102443.58;1707232;83;26115;-59
2022/10/07 02:47:53;;;;;;;;;;;;;;;13.88;60.36;102443.08;1703010;84;25856;-60
2022/10/07 02:50:23;;;;;;;;;;;;;;;13.86;60.83;102441.84;1666864;86;27504;-59
2022/10/07 02:52:52;;;;;;;;;;;;;;;13.87;60.60;102435.94;1654446;85;25721;-59
2022/10/07 02:55:22;;;;;;;;;;;;;;;13.90;60.46;102435.70;1693984;84;25741;-59
2022/10/07 02:57:52;;;;;;;;;;;;;;;13.93;60.31;102438.19;1682859;84;26074;-59
2022/10/07 03:00:19;;;;;;;;;;;;;;;13.96;60.43;102445.20;1676586;85;25821;-59
2022/10/07 03:02:52;;;;;;;;;;;;;;;13.97;60.18;102441.52;1676746;85;27620;-59
2022/10/07 03:05:23;;;;;;;;;;;;;;;13.96;60.70;102447.41;1676848;85;25800;-60
2022/10/07 03:08:04;;;;;;;;;;;;;;;13.98;60.85;102435.13;1676567;85;25975;-60
2022/10/07 03:10:31;;;;;;;;;;;;;;;13.97;60.73;102439.66;1676610;85;26097;-59
2022/10/07 03:12:58;;;;;;;;;;;;;;;13.98;60.62;102451.37;1676692;85;26515;-60
2022/10/07 03:15:26;;;;;;;;;;;;;;;13.98;61.29;102455.42;1676838;85;27547;-60
2022/10/07 03:17:53;;;;;;;;;;;;;;;13.95;60.93;102444.32;1676872;85;25725;-60
2022/10/07 03:20:21;;;;;;;;;;;;;;;13.98;60.78;102441.39;1676374;85;25841;-59
2022/10/07 03:22:49;;;;;;;;;;;;;;;13.99;60.61;102447.18;1676708;85;26066;-60
2022/10/07 03:25:17;;;;;;;;;;;;;;;14.02;60.95;102440.19;1676461;85;25760;-60
2022/10/07 03:27:44;;;;;;;;;;;;;;;14.05;61.17;102445.34;1676544;85;27513;-59
2022/10/07 03:30:12;;;;;;;;;;;;;;;14.05;60.96;102447.20;1685477;84;25724;-59
2022/10/07 03:32:40;;;;;;;;;;;;;;;14.07;61.38;102439.33;1691328;84;25454;-62
2022/10/07 03:35:07;;;;;;;;;;;;;;;14.08;61.95;102450.53;1677670;84;26092;-59
2022/10/07 03:37:35;;;;;;;;;;;;;;;14.05;61.65;102438.58;1677427;85;25785;-59
2022/10/07 03:40:05;;;;;;;;;;;;;;;14.05;61.54;102445.85;1682317;84;28494;-59
2022/10/07 03:42:31;;;;;;;;;;;;;;;14.07;62.16;102443.90;1686631;84;25793;-59
2022/10/07 03:44:58;;;;;;;;;;;;;;;14.10;61.99;102443.64;1677467;84;25876;-60
2022/10/07 03:47:26;;;;;;;;;;;;;;;14.17;61.85;102438.62;1677228;85;26149;-60
2022/10/07 03:49:55;;;;;;;;;;;;;;;14.23;61.80;102438.13;1677082;84;27236;-59
2022/10/07 03:52:23;;;;;;;;;;;;;;;14.31;61.70;102437.05;1677203;85;27593;-60
2022/10/07 03:54:49;;;;;;;;;;;;;;;14.39;61.78;102431.89;1677423;84;25708;-60
2022/10/07 04:00:01;;;;;;;;;;;;;;;14.54;61.61;102431.17;1677335;85;26102;-59
2022/10/07 04:02:28;;;;;;;;;;;;;;;14.54;61.73;102427.11;1677247;85;25748;-60
2022/10/07 04:04:55;;;;;;;;;;;;;;;14.58;62.00;102428.23;1680016;84;27316;-58
2022/10/07 04:07:23;;;;;;;;;;;;;;;14.58;61.82;102429.59;1682615;85;25730;-60
2022/10/07 04:09:50;;;;;;;;;;;;;;;14.56;61.79;102427.02;1683022;85;25821;-60
2022/10/07 04:12:16;;;;;;;;;;;;;;;14.47;61.67;102437.22;1682774;85;26867;-60
2022/10/07 04:14:43;;;;;;;;;;;;;;;14.43;61.73;102435.24;1682633;85;27391;-59
2022/10/07 04:17:10;;;;;;;;;;;;;;;14.38;61.74;102440.14;1681481;85;27559;-60
2022/10/07 04:19:37;;;;;;;;;;;;;;;14.27;62.09;102441.47;1677156;84;25748;-59
2022/10/07 04:22:05;;;;;;;;;;;;;;;14.14;61.92;102442.91;1677202;85;25785;-59
2022/10/07 04:24:32;;;;;;;;;;;;;;;14.04;62.27;102442.27;1677174;85;26156;-61
2022/10/07 04:27:00;;;;;;;;;;;;;;;13.96;62.52;102439.28;1677413;85;25641;-60
2022/10/07 04:29:27;;;;;;;;;;;;;;;13.87;62.61;102444.92;1677944;85;27498;-61
2022/10/07 04:31:57;;;;;;;;;;;;;;;13.74;62.99;102445.00;1687494;85;25779;-60
2022/10/07 04:34:23;;;;;;;;;;;;;;;13.64;63.36;102448.02;1680734;85;25824;-60
2022/10/07 04:36:53;;;;;;;;;;;;;;;13.58;63.32;102441.23;1680715;85;26159;-59
2022/10/07 04:39:20;;;;;;;;;;;;;;;13.53;63.30;102445.25;1688095;84;25818;-59
2022/10/07 04:41:49;;;;;;;;;;;;;;;13.44;63.87;102440.91;1685729;83;28294;-60
2022/10/07 04:44:18;;;;;;;;;;;;;;;13.38;64.05;102444.51;1676274;85;25491;-60
2022/10/07 04:46:55;;;;;;;;;;;;;;;13.34;64.10;102447.08;1676393;85;25818;-59
2022/10/07 04:49:24;;;;;;;;;;;;;;;13.31;63.79;102442.77;1676569;85;26146;-60
2022/10/07 04:51:53;;;;;;;;;;;;;;;13.26;64.07;102455.27;1676770;85;25772;-60
2022/10/07 04:54:21;;;;;;;;;;;;;;;13.23;64.25;102449.20;1676412;85;27592;-59
2022/10/07 04:56:50;;;;;;;;;;;;;;;13.20;64.57;102453.50;1676716;85;26001;-60
2022/10/07 04:59:19;;;;;;;;;;;;;;;13.17;64.72;102453.71;1676613;85;25698;-61
2022/10/07 05:01:45;;;;;;;;;;;;;;;13.15;65.22;102452.48;1676541;85;26073;-60
2022/10/07 05:04:13;;;;;;;;;;;;;;;13.14;64.77;102459.71;1676718;85;25879;-60
2022/10/07 05:06:39;;;;;;;;;;;;;;;13.13;64.97;102457.98;1676709;85;27387;-60
2022/10/07 05:09:06;;;;;;;;;;;;;;;13.12;65.34;102454.05;1676553;85;25842;-60
2022/10/07 05:11:36;;;;;;;;;;;;;;;13.11;65.07;102458.60;1677270;85;25703;-60
2022/10/07 05:14:04;;;;;;;;;;;;;;;13.11;65.31;102458.60;1680047;85;26097;-60
2022/10/07 05:16:32;;;;;;;;;;;;;;;13.13;65.64;102458.48;1680500;85;25803;-60
2022/10/07 05:18:58;;;;;;;;;;;;;;;13.13;65.66;102463.38;1680695;85;27501;-59
2022/10/07 05:21:25;;;;;;;;;;;;;;;13.14;65.75;102466.47;1679700;85;25727;-59
2022/10/07 05:23:52;;;;;;;;;;;;;;;13.17;65.90;102460.47;1676589;85;25802;-59
2022/10/07 05:26:20;;;;;;;;;;;;;;;13.20;66.03;102467.02;1676567;85;26079;-59
2022/10/07 05:28:48;;;;;;;;;;;;;;;13.21;65.92;102466.04;1676493;85;25746;-60
2022/10/07 05:31:16;;;;;;;;;;;;;;;13.23;66.06;102477.58;1693108;84;27531;-60
2022/10/07 05:33:48;;;;;;;;;;;;;;;13.24;65.86;102475.25;1673467;84;25785;-59
2022/10/07 05:36:15;;;;;;;;;;;;;;;13.23;66.29;102477.11;1672188;84;25840;-59
2022/10/07 05:38:42;;;;;;;;;;;;;;;13.26;66.39;102488.17;1688949;83;28394;-59
2022/10/07 05:41:11;;;;;;;;;;;;;;;13.27;66.54;102492.61;1716365;83;27251;-60
2022/10/07 05:43:46;;;;;;;;;;;;;;;13.29;66.77;102498.27;1716055;83;27538;-60
2022/10/07 05:46:15;;;;;;;;;;;;;;;13.33;66.90;102496.70;1716197;83;25834;-59
2022/10/07 05:48:48;;;;;;;;;;;;;;;13.36;66.79;102500.05;1712634;83;25706;-58
2022/10/07 05:51:15;;;;;;;;;;;;;;;13.39;66.86;102493.11;1686461;85;27428;-59
2022/10/07 05:53:43;;;;;;;;;;;;;;;13.45;66.68;102497.17;1680548;84;25850;-59
2022/10/07 05:56:13;;;;;;;;;;;;;;;13.52;66.73;102497.59;1677657;85;28572;-60
2022/10/07 05:58:40;;;;;;;;;;;;;;;13.58;66.88;102507.98;1679417;85;25796;-60
2022/10/07 06:01:11;;;;;;;;;;;;;;;13.63;67.09;102500.38;1677703;85;25776;-60
2022/10/07 06:03:38;;;;;;;;;;;;;;;13.72;66.97;102502.86;1678484;85;25667;-61
2022/10/07 06:06:06;;;;;;;;;;;;;;;13.78;67.28;102497.87;1674269;85;25955;-60
2022/10/07 06:08:33;;;;;;;;;;;;;;;13.85;67.29;102497.43;1700080;84;27423;-60
2022/10/07 06:13:48;;;;;;;;;;;;;;;14.01;67.35;102497.98;1701299;84;25824;-60
2022/10/07 06:16:15;;;;;;;;;;;;;;;14.11;67.14;102502.70;1700564;83;26147;-59
2022/10/07 06:18:41;;;;;;;;;;;;;;;14.19;67.26;102509.24;1711262;84;25902;-60
2022/10/07 06:21:08;;;;;;;;;;;;;;;14.29;67.25;102500.41;1685033;84;27490;-60
2022/10/07 06:23:35;;;;;;;;;;;;;;;14.37;68.06;102502.03;1680067;83;25761;-59
2022/10/07 06:26:04;;;;;;;;;;;;;;;14.44;67.17;102497.02;1708762;83;25798;-60
2022/10/07 06:28:33;;;;;;;;;;;;;;;14.52;67.34;102498.13;1698605;84;26340;-60
2022/10/07 06:31:06;;;;;;;;;;;;;;;14.61;68.19;102497.06;1676714;84;25753;-60
2022/10/07 06:33:33;;;;;;;;;;;;;;;14.70;67.75;102503.99;1683631;85;27503;-60
2022/10/07 06:36:13;;;;;;;;;;;;;;;14.78;68.74;102503.40;1677067;84;25740;-61
2022/10/07 06:38:45;;;;;;;;;;;;;;;14.90;68.03;102502.03;1678129;83;25861;-60
2022/10/07 06:41:14;;;;;;;;;;;;;;;15.02;68.98;102495.64;1676328;84;26052;-60
2022/10/07 06:43:42;;;;;;;;;;;;;;;15.13;68.43;102496.12;1668991;85;25815;-59
2022/10/07 06:46:13;;;;;;;;;;;;;;;15.26;68.17;102498.22;1677333;85;27501;-60
2022/10/07 06:48:41;;;;;;;;;;;;;;;15.40;69.01;102498.92;1676369;85;25757;-59
2022/10/07 06:51:08;;;;;;;;;;;;;;;15.51;68.41;102499.42;1669391;85;25756;-60
2022/10/07 06:53:35;;;;;;;;;;;;;;;15.64;68.15;102503.67;1678636;85;26118;-59
2022/10/07 06:56:03;;;;;;;;;;;;;;;15.76;68.53;102499.58;1679313;85;25917;-59
2022/10/07 06:58:32;;;;;;;;;;;;;;;15.83;68.25;102498.08;1679727;83;27683;-60
2022/10/07 07:00:59;;;;;;;;;;;;;;;15.98;67.94;102500.55;1677085;84;25886;-59
2022/10/07 07:03:28;;;;;;;;;;;;;;;16.13;67.88;102499.73;1679537;84;27054;-59
2022/10/07 07:05:56;;;;;;;;;;;;;;;16.23;67.64;102489.31;1678278;85;26116;-60
2022/10/07 07:08:31;;;;;;;;;;;;;;;16.33;67.47;102498.03;1677674;85;25729;-60
2022/10/07 07:11:04;;;;;;;;;;;;;;;16.42;67.32;102501.31;1671871;84;27707;-60
2022/10/07 07:13:34;;;;;;;;;;;;;;;16.53;66.98;102505.33;1678881;84;25765;-60
2022/10/07 07:16:00;;;;;;;;;;;;;;;16.66;66.92;102496.96;1683954;83;25807;-61
2022/10/07 07:18:28;;;;;;;;;;;;;;;16.78;66.36;102496.86;1674053;85;28334;-59
2022/10/07 07:21:06;;;;;;;;;;;;;;;16.91;66.25;102498.88;1675558;84;25734;-59
2022/10/07 07:23:31;;;;;;;;;;;;;;;17.03;66.37;102495.08;1676512;85;27696;-60
2022/10/07 07:25:59;;;;;;;;;;;;;;;17.15;65.49;102497.22;1676484;85;25844;-60
2022/10/07 07:28:26;;;;;;;;;;;;;;;17.23;65.06;102491.59;1676314;85;25875;-59
2022/10/07 07:30:54;;;;;;;;;;;;;;;17.32;64.82;102497.56;1687608;84;26118;-60
2022/10/07 07:33:20;;;;;;;;;;;;;;;17.43;64.47;102497.45;1688509;83;25806;-60
2022/10/07 07:35:47;;;;;;;;;;;;;;;17.55;64.17;102487.79;1677234;84;28030;-59
2022/10/07 07:38:14;;;;;;;;;;;;;;;17.64;63.89;102493.75;1681350;83;25767;-60
2022/10/07 07:40:41;;;;;;;;;;;;;;;17.78;62.90;102492.00;1678442;83;25815;-61
2022/10/07 07:43:08;;;;;;;;;;;;;;;17.86;62.66;102487.18;1677346;83;26113;-60
2022/10/07 07:45:36;;;;;;;;;;;;;;;17.96;62.43;102487.23;1675940;84;26673;-60
2022/10/07 07:48:04;;;;;;;;;;;;;;;18.11;62.48;102480.83;1677461;83;27565;-61
2022/10/07 07:50:31;;;;;;;;;;;;;;;18.27;62.13;102481.61;1678244;84;25782;-60
2022/10/07 07:53:01;;;;;;;;;;;;;;;18.42;61.28;102473.84;1678436;84;25728;-59
2022/10/07 07:55:27;;;;;;;;;;;;;;;18.57;61.06;102481.06;1677371;83;26152;-60
2022/10/07 07:57:53;;;;;;;;;;;;;;;18.63;60.76;102477.73;1676267;85;25773;-60
2022/10/07 08:00:20;;;;;;;;;;;;;;;18.77;60.37;102472.31;1676499;85;27519;-60
2022/10/07 08:02:55;;;;;;;;;;;;;;;18.90;60.03;102471.97;1677154;84;26239;-60
2022/10/07 08:05:23;;;;;;;;;;;;;;;19.08;60.19;102470.72;1677276;83;25717;-60
2022/10/07 08:07:51;;;;;;;;;;;;;;;19.27;59.04;102468.38;1674297;85;26338;-61
2022/10/07 08:10:19;;;;;;;;;;;;;;;19.41;58.42;102461.55;1676076;83;25837;-60
2022/10/07 08:12:46;;;;;;;;;;;;;;;19.57;57.65;102458.63;1675823;85;27685;-61
2022/10/07 08:15:13;;;;;;;;;;;;;;;19.71;57.26;102464.42;1674129;85;26354;-61
2022/10/07 08:17:40;;;;;;;;;;;;;;;19.91;56.55;102460.69;1676054;84;25782;-61
2022/10/07 08:20:09;;;;;;;;;;;;;;;20.03;57.52;102455.34;1677715;85;26126;-60
2022/10/07 08:22:36;;;;;;;;;;;;;;;20.26;57.06;102461.17;1678147;85;25796;-61
2022/10/07 08:25:04;;;;;;;;;;;;;;;20.47;56.75;102459.95;1676797;85;27392;-60
2022/10/07 08:27:32;;;;;;;;;;;;;;;20.72;56.42;102460.09;1675711;85;25760;-60
2022/10/07 08:29:59;;;;;;;;;;;;;;;21.00;53.87;102462.66;1679058;85;25795;-59
2022/10/07 08:32:25;;;;;;;;;;;;;;;21.16;54.25;102463.25;1686593;85;26056;-60
2022/10/07 08:34:52;;;;;;;;;;;;;;;21.35;52.83;102453.36;1678977;84;25780;-60
2022/10/07 08:37:19;;;;;;;;;;;;;;;21.55;52.56;102456.69;1680544;84;27612;-61
2022/10/07 08:39:47;;;;;;;;;;;;;;;21.68;51.87;102453.48;1688338;83;25860;-60
2022/10/07 08:42:23;;;;;;;;;;;;;;;21.80;52.26;102450.39;1678171;83;25765;-60
2022/10/07 08:44:50;;;;;;;;;;;;;;;22.03;52.38;102453.30;1672388;84;26116;-60
2022/10/07 08:47:26;;;;;;;;;;;;;;;22.14;51.03;102451.59;1679096;83;25839;-60
2022/10/07 08:50:05;;;;;;;;;;;;;;;22.25;51.49;102454.48;1682225;85;27454;-60
2022/10/07 08:52:50;;;;;;;;;;;;;;;22.34;51.24;102451.23;1682500;85;25465;-60
2022/10/07 08:55:23;;;;;;;;;;;;;;;22.51;51.29;102446.59;1682644;85;25735;-60
2022/10/07 08:58:02;;;;;;;;;;;;;;;22.66;48.82;102446.23;1681236;84;26317;-60
2022/10/07 09:00:24;;;;;;;;;;;;;;;22.60;49.10;102444.70;1676163;85;26348;-61
2022/10/07 09:02:59;;;;;;;;;;;;;;;22.59;49.06;102444.36;1677316;85;27619;-60
2022/10/07 09:05:35;;;;;;;;;;;;;;;22.61;49.63;102441.77;1677078;84;26102;-60
2022/10/07 09:08:05;;;;;;;;;;;;;;;22.84;49.58;102445.14;1677499;84;25780;-61
2022/10/07 09:10:48;;;;;;;;;;;;;;;23.48;48.75;102443.30;1655704;85;26194;-61
2022/10/07 09:13:19;;;;;;;;;;;;;;;24.40;46.81;102441.52;1678580;83;25503;-60
2022/10/07 09:16:07;;;;;;;;;;;;;;;25.40;44.61;102435.17;1681295;83;28397;-59
2022/10/07 09:18:49;;;;;;;;;;;;;;;26.33;43.84;102438.45;1680599;85;25809;-60
2022/10/07 09:21:24;;;;;;;;;;;;;;;26.98;43.01;102436.33;1681125;85;25754;-59
2022/10/07 09:23:56;;;;;;;;;;;;;;;27.61;41.91;102437.16;1681024;83;26335;-60
2022/10/07 09:26:25;;;;;;;;;;;;;;;28.15;40.82;102429.75;1677170;85;25736;-59
2022/10/07 09:28:52;;;;;;;;;;;;;;;28.92;40.77;102425.55;1677546;85;27174;-60
2022/10/07 09:31:21;;;;;;;;;;;;;;;29.22;38.13;102423.61;1683161;84;25820;-60
2022/10/07 09:33:51;;;;;;;;;;;;;;;29.11;37.54;102419.08;1681050;84;25744;-59
2022/10/07 09:36:19;;;;;;;;;;;;;;;29.15;36.21;102408.39;1677254;85;26800;-60
2022/10/07 09:38:47;;;;;;;;;;;;;;;29.34;36.76;102410.23;1691716;83;25717;-61
2022/10/07 09:41:23;;;;;;;;;;;;;;;29.07;37.37;102408.10;1676843;85;27484;-61
2022/10/07 09:43:57;;;;;;;;;;;;;;;28.72;36.55;102404.32;1677693;85;25818;-60
2022/10/07 09:46:47;;;;;;;;;;;;;;;28.28;37.06;102405.39;1678048;84;25736;-60
2022/10/07 09:49:33;;;;;;;;;;;;;;;27.55;37.58;102400.70;1682027;85;26106;-61
2022/10/07 09:52:07;;;;;;;;;;;;;;;27.07;38.89;102402.46;1690249;84;25801;-62
2022/10/07 09:54:34;;;;;;;;;;;;;;;26.45;38.70;102398.22;1683576;84;27710;-60
2022/10/07 09:57:03;;;;;;;;;;;;;;;25.75;39.98;102405.83;1677258;85;25845;-61
2022/10/07 09:59:32;;;;;;;;;;;;;;;25.23;40.81;102401.47;1677415;85;25732;-59
2022/10/07 10:02:15;;;;;;;;;;;;;;;24.69;41.82;102397.55;1677643;85;26234;-59
2022/10/07 10:04:53;;;;;;;;;;;;;;;24.12;42.87;102396.78;1682196;84;26060;-64
2022/10/07 10:07:26;;;;;;;;;;;;;;;23.88;43.38;102395.42;1677097;85;28434;-60
2022/10/07 10:10:18;;;;;;;;;;;;;;;24.87;43.29;102390.80;1674663;85;25817;-60
2022/10/07 10:12:46;;;;;;;;;;;;;;;25.91;42.49;102386.79;1677329;85;25745;-60
2022/10/07 10:15:26;;;;;;;;;;;;;;;26.94;38.28;102382.55;1677627;85;26107;-60
2022/10/07 10:17:55;;;;;;;;;;;;;;;27.36;36.16;102382.45;1677184;85;25507;-60
2022/10/07 10:20:42;;;;;;;;;;;;;;;27.58;35.90;102380.91;1677588;85;28280;-60
2022/10/07 10:23:23;;;;;;;;;;;;;;;27.38;36.14;102374.81;1677163;83;25827;-59
2022/10/07 10:26:25;;;;;;;;;;;;;;;27.01;36.11;102374.30;1659068;85;25853;-59
2022/10/07 10:28:58;;;;;;;;;;;;;;;27.35;36.88;102369.70;1677071;85;26501;-60
2022/10/07 10:31:40;;;;;;;;;;;;;;;27.34;37.08;102368.00;1694501;84;25697;-60
2022/10/07 10:34:17;;;;;;;;;;;;;;;26.86;37.81;102364.80;1646523;85;27524;-60
2022/10/07 10:36:48;;;;;;;;;;;;;;;26.17;39.09;102374.82;1676069;85;25800;-60
2022/10/07 10:39:30;;;;;;;;;;;;;;;25.56;39.49;102365.16;1682598;84;25813;-60
2022/10/07 10:41:59;;;;;;;;;;;;;;;25.27;40.22;102362.86;1676658;85;26168;-60
2022/10/07 10:44:32;;;;;;;;;;;;;;;25.18;40.85;102364.03;1677954;85;25793;-60
2022/10/07 10:47:24;;;;;;;;;;;;;;;25.88;40.58;102360.15;1676616;85;28365;-60
2022/10/07 10:50:18;;;;;;;;;;;;;;;27.01;40.16;102346.69;1676318;85;25749;-60
2022/10/07 10:53:03;;;;;;;;;;;;;;;28.14;37.34;102342.31;1675576;85;25759;-60
2022/10/07 10:55:36;;;;;;;;;;;;;;;29.09;36.52;102335.32;1676395;85;28252;-60
2022/10/07 10:58:24;;;;;;;;;;;;;;;29.15;33.81;102334.42;1676132;85;26302;-60
2022/10/07 11:00:58;;;;;;;;;;;;;;;28.30;33.97;102337.37;1676303;85;28843;-60
2022/10/07 11:03:35;;;;;;;;;;;;;;;27.22;35.58;102332.36;1675837;85;25742;-60
2022/10/07 11:06:04;;;;;;;;;;;;;;;26.40;36.98;102336.75;1676585;85;26464;-60
2022/10/07 11:08:33;;;;;;;;;;;;;;;25.83;38.14;102341.45;1676941;84;26254;-61
2022/10/07 11:11:10;;;;;;;;;;;;;;;25.38;38.56;102329.27;1680456;85;26452;-61
2022/10/07 11:13:45;;;;;;;;;;;;;;;25.06;39.11;102327.37;1680775;85;27425;-59
2022/10/07 11:16:16;;;;;;;;;;;;;;;24.90;39.47;102323.48;1677001;85;25815;-60
2022/10/07 11:19:04;;;;;;;;;;;;;;;24.86;39.89;102325.78;1676581;85;26822;-60
2022/10/07 11:21:34;;;;;;;;;;;;;;;25.09;40.14;102320.61;1674938;85;26113;-60
2022/10/07 11:24:09;;;;;;;;;;;;;;;25.58;39.80;102318.48;1674178;84;25782;-61
2022/10/07 11:26:38;;;;;;;;;;;;;;;25.75;40.00;102314.87;1674368;85;28390;-60
2022/10/07 11:29:12;;;;;;;;;;;;;;;26.03;39.54;102307.66;1676464;84;25753;-60
2022/10/07 11:31:42;;;;;;;;;;;;;;;26.15;38.39;102304.67;1693001;83;25786;-60
2022/10/07 11:34:24;;;;;;;;;;;;;;;26.33;38.12;102306.03;1694296;84;26142;-60
2022/10/07 11:36:57;;;;;;;;;;;;;;;26.41;37.53;102308.62;1648263;85;25846;-60
2022/10/07 11:39:24;;;;;;;;;;;;;;;26.08;38.92;102304.66;1680988;84;28294;-60
2022/10/07 11:41:57;;;;;;;;;;;;;;;25.61;39.68;102311.17;1664365;85;25761;-60
2022/10/07 11:44:30;;;;;;;;;;;;;;;25.46;40.29;102305.73;1678439;85;25851;-60
2022/10/07 11:46:59;;;;;;;;;;;;;;;25.38;40.44;102307.22;1663739;84;26177;-60
2022/10/07 11:49:38;;;;;;;;;;;;;;;25.23;40.57;102300.44;1676506;85;26207;-60
2022/10/07 11:52:10;;;;;;;;;;;;;;;25.16;41.10;102296.75;1677480;85;27582;-60
2022/10/07 11:54:43;;;;;;;;;;;;;;;25.11;41.20;102298.71;1676636;85;25776;-60
2022/10/07 11:57:21;;;;;;;;;;;;;;;24.99;41.09;102297.01;1675253;85;25721;-60
2022/10/07 12:00:04;;;;;;;;;;;;;;;24.88;41.43;102299.42;1674884;85;26097;-60
2022/10/07 12:02:37;;;;;;;;;;;;;;;24.74;41.87;102293.78;1676388;85;25787;-59
2022/10/07 12:05:06;;;;;;;;;;;;;;;24.64;41.78;102298.71;1689330;83;27564;-59
2022/10/07 12:07:38;;;;;;;;;;;;;;;24.58;41.96;102292.58;1676153;85;25764;-60
2022/10/07 12:10:24;;;;;;;;;;;;;;;24.53;41.94;102291.78;1676611;85;25756;-60
2022/10/07 12:12:56;;;;;;;;;;;;;;;24.34;42.04;102292.71;1675645;85;26112;-60
2022/10/07 12:15:32;;;;;;;;;;;;;;;24.29;42.28;102286.11;1676585;84;25713;-60
2022/10/07 12:18:05;;;;;;;;;;;;;;;24.21;42.50;102288.42;1677861;85;28245;-59
2022/10/07 12:20:45;;;;;;;;;;;;;;;24.20;42.36;102284.83;1683863;85;25711;-59
2022/10/07 12:23:21;;;;;;;;;;;;;;;24.23;42.57;102280.84;1685454;85;25756;-60
2022/10/07 12:26:01;;;;;;;;;;;;;;;24.25;42.17;102276.52;1676073;85;26908;-60
2022/10/07 12:28:41;;;;;;;;;;;;;;;24.16;42.18;102276.63;1677006;85;25717;-59
2022/10/07 12:31:23;;;;;;;;;;;;;;;24.09;42.43;102274.81;1679180;85;27498;-60
2022/10/07 12:34:08;;;;;;;;;;;;;;;24.04;42.50;102277.63;1677749;85;26424;-60
2022/10/07 12:36:38;;;;;;;;;;;;;;;23.96;42.62;102274.97;1677246;83;25820;-60
2022/10/07 12:39:11;;;;;;;;;;;;;;;23.90;42.76;102277.05;1683015;84;26166;-61
2022/10/07 12:41:44;;;;;;;;;;;;;;;23.84;42.84;102273.69;1677867;85;26035;-61
2022/10/07 12:44:33;;;;;;;;;;;;;;;23.74;42.93;102272.07;1678128;85;27713;-60
2022/10/07 12:47:03;;;;;;;;;;;;;;;23.67;43.22;102272.99;1681217;85;25766;-60
2022/10/07 12:49:35;;;;;;;;;;;;;;;23.60;43.31;102264.14;1682063;85;26093;-60
2022/10/07 12:52:36;;;;;;;;;;;;;;;23.55;43.77;102267.11;1679959;85;26185;-61
2022/10/07 12:55:09;;;;;;;;;;;;;;;23.49;43.87;102273.36;1678699;84;25762;-60
2022/10/07 12:57:39;;;;;;;;;;;;;;;23.43;43.81;102266.70;1675998;85;28040;-61
2022/10/07 13:00:12;;;;;;;;;;;;;;;23.36;44.42;102265.22;1678781;85;25768;-59
2022/10/07 13:02:54;;;;;;;;;;;;;;;23.24;44.54;102268.09;1661725;84;25724;-59
2022/10/07 13:05:55;;;;;;;;;;;;;;;23.04;44.79;102264.42;1679225;85;26188;-60